Πλησιέστερες Αναφορές METAR

 

LGTS - Thessaloniki/Makedonia-Elev 7m
Απόσταση από σταθμό: Ν 13km
Ενημερώθηκε: 10/12/2019 15:20
Σχεδόν νεφελώδης
Σχεδόν νεφελώδης
 Ανεμοι από μεταβλητός
Ανεμος: μεταβλητός 2 km/h
Θερμοκρασία: 12°C
Σημείο Δρόσου: 10°C
Υγρασία: 88%
Βαρόμετρο: 1011 hPa
Νέφωση: Σχεδόν νεφελώδης
Ορατότητα: 9 km
Λεπτομέρειες Νεφών: Διάσπαρτα Νέφη 244 m
Σχεδόν νεφελώδης 762 m
2019/12/10 13:20 LGTS 101320Z VRB01KT 9000 FEW008 BKN025 12/10 Q1011 NOSIG
LGAV - Athens/Elef. Venizelos-Elev 94m
Απόσταση από σταθμό: ΝΝΑ 312km
Ενημερώθηκε: 10/12/2019 15:20
Βροχή, Συννεφιά
Βροχή, Συννεφιά
 Ανεμοι από ΝΑ
Ανεμος: ΝΑ 4 km/h
Θερμοκρασία: 14°C
Σημείο Δρόσου: 13°C
Υγρασία: 94%
Βαρόμετρο: 1008 hPa
Περίληψη: Βροχή
Νέφωση: Συννεφιά
Ορατότητα: 7 km
Λεπτομέρειες Νεφών: Διάσπαρτα Νέφη 213 m
Σχεδόν νεφελώδης 610 m
Συννεφιά 2134 m
2019/12/10 13:20 LGAV 101320Z 13002KT 7000 RA FEW007 BKN020 OVC070 14/13 Q1008 NOSIG
 
LGAL - Alexandroupolis-Elev 3m
Απόσταση από σταθμό: Α 251km
Ενημερώθηκε: 10/12/2019 15:20
Μερικώς νεφελώδης
Μερικώς νεφελώδης
 Ανεμοι από ΒΑ
Ανεμος: ΒΑ 13 km/h
Θερμοκρασία: 12°C
Σημείο Δρόσου: 4°C
Υγρασία: 58%
Βαρόμετρο: 1011 hPa
Νέφωση: Μερικώς νεφελώδης
Ορατότητα: 10 km
Λεπτομέρειες Νεφών: Διάσπαρτα Νέφη 610 m
Μερικώς νεφελώδης 762 m
2019/12/10 13:20 LGAL 101320Z 05007KT 9999 FEW020 SCT025 12/04 Q1011
LGKV - Kavala/Crysoupolis-Elev 5m
Απόσταση από σταθμό: ΑΒΑ 144km
Ενημερώθηκε: 10/12/2019 15:20
Σχεδόν νεφελώδης
Σχεδόν νεφελώδης
 Ανεμοι από ΒΑ
Ανεμος: ΒΑ 7 km/h
Θερμοκρασία: 10°C
Δείκτης Ψύχρας: 9°C
Σημείο Δρόσου: 9°C
Υγρασία: 94%
Βαρόμετρο: 1010 hPa
Νέφωση: Σχεδόν νεφελώδης
Ορατότητα: 10 km
Λεπτομέρειες Νεφών: Μερικώς νεφελώδης 762 m
Σχεδόν νεφελώδης 2438 m
2019/12/10 13:20 LGKV 101320Z 05004KT 9999 SCT025 BKN080 10/09 Q1010
 
LGSK - Skiathos Island-Elev 15m
Απόσταση από σταθμό: ΝΝΑ 168km
Ενημερώθηκε: 10/12/2019 14:50
Ασθενής βροχή, Σχεδόν νεφελώδης
Ασθενής βροχή, Σχεδόν νεφελώδης
 Ανεμοι από ΒΒΔ
Ανεμος: ΒΒΔ 11 km/h
Θερμοκρασία: 15°C
Σημείο Δρόσου: 11°C
Υγρασία: 77%
Βαρόμετρο: 1008 hPa
Περίληψη: Ασθενής βροχή
Νέφωση: Σχεδόν νεφελώδης
Ορατότητα: 8 km
Λεπτομέρειες Νεφών: Διάσπαρτα Νέφη 305 m
Σχεδόν νεφελώδης 914 m
2019/12/10 12:50 LGSK 101250Z 34006KT 8000 -RA FEW010 BKN030 15/11 Q1008
LGLM - Limnos Island-Elev 5m
Απόσταση από σταθμό: ΑΝΑ 210km
Ενημερώθηκε: 10/12/2019 15:20
Διάσπαρτα Νέφη
Διάσπαρτα Νέφη
 Ανεμοι από ΑΝΑ
Ανεμος: ΑΝΑ 13 km/h
Θερμοκρασία: 14°C
Σημείο Δρόσου: 9°C
Υγρασία: 72%
Βαρόμετρο: 1009 hPa
Νέφωση: Διάσπαρτα Νέφη
Ορατότητα: 10 km
Λεπτομέρειες Νεφών: Διάσπαρτα Νέφη 914 m
2019/12/10 13:20 LGLM 101320Z 12007KT 9999 FEW030 14/09 Q1009
 
LGMT - Mitilini Island-Elev 17m
Απόσταση από σταθμό: ΑΝΑ 358km
Ενημερώθηκε: 10/12/2019 15:20
Διάσπαρτα Νέφη
Διάσπαρτα Νέφη
 Ανεμοι από ΝΝΑ
Ανεμος: ΝΝΑ 15 km/h
Θερμοκρασία: 17°C
Σημείο Δρόσου: 9°C
Υγρασία: 59%
Βαρόμετρο: 1011 hPa
Νέφωση: Διάσπαρτα Νέφη
Ορατότητα: 10 km
Λεπτομέρειες Νεφών: Διάσπαρτα Νέφη 914 m
2019/12/10 13:20 LGMT 101320Z 15008KT 120V210 9999 FEW030 17/09 Q1011
LGSY - Skiros Island-Elev 15m
Απόσταση από σταθμό: ΝΑ 227km
Ενημερώθηκε: 10/12/2019 14:50
Μερικώς νεφελώδης
Μερικώς νεφελώδης
 Ανεμοι από ΝΑ
Ανεμος: ΝΑ 13 km/h
Θερμοκρασία: 15°C
Σημείο Δρόσου: 12°C
Υγρασία: 82%
Βαρόμετρο: 1008 hPa
Νέφωση: Μερικώς νεφελώδης
Ορατότητα: 10 km
Λεπτομέρειες Νεφών: Διάσπαρτα Νέφη 305 m
Διάσπαρτα Νέφη 610 m
Μερικώς νεφελώδης 762 m
2019/12/10 12:50 LGSY 101250Z 13007KT 9999 FEW010 FEW020TCU SCT025 15/12 Q1008 RMK BKN080 BLU
 
LGKZ - Kozani-Elev 628m
Απόσταση από σταθμό: ΔΝΔ 102km
Ενημερώθηκε: 10/12/2019 14:50
Ασθενής βροχή, Αχλύς, Συννεφιά
Ασθενής βροχή, Αχλύς, Συννεφιά
 Ανεμοι από άπνοια
Ανεμος: άπνοια
Θερμοκρασία: 7°C
Σημείο Δρόσου: 7°C
Υγρασία: 100%
Βαρόμετρο: 1009 hPa
Περίληψη: Ασθενής βροχή, Αχλύς
Νέφωση: Συννεφιά
Ορατότητα: 3 km
Λεπτομέρειες Νεφών: Διάσπαρτα Νέφη 244 m
Σχεδόν νεφελώδης 762 m
Συννεφιά 2134 m
2019/12/10 12:50 LGKZ 101250Z 00000KT 3000 -RA BR FEW008 BKN025 OVC070 07/07 Q1009
LGIO - Ioannina-Elev 476m
Απόσταση από σταθμό: ΔΝΔ 209km
Ενημερώθηκε: 10/12/2019 15:20
Ασθενής βροχή
Ασθενής βροχή
 Ανεμοι από μεταβλητός
Ανεμος: μεταβλητός 6 km/h
Θερμοκρασία: 9°C
Σημείο Δρόσου: 8°C
Υγρασία: 94%
Βαρόμετρο: 1007 hPa
Περίληψη: Ασθενής βροχή
2019/12/10 13:20 LGIO 101320Z AUTO VRB03KT //// -RA ////// 09/08 Q1007 RE//
 
LGZA - Zakinthos-Elev 3m
Απόσταση από σταθμό: ΝΝΔ 367km
Ενημερώθηκε: 10/12/2019 14:50
Ασθενής βροχή, Συννεφιά
Ασθενής βροχή, Συννεφιά
 Ανεμοι από ΒΒΔ
Ανεμος: ΒΒΔ 7 km/h
Θερμοκρασία: 12°C
Σημείο Δρόσου: 11°C
Υγρασία: 94%
Βαρόμετρο: 1005 hPa
Περίληψη: Ασθενής βροχή
Νέφωση: Συννεφιά
Ορατότητα: 10 km
Λεπτομέρειες Νεφών: Διάσπαρτα Νέφη 305 m
Μερικώς νεφελώδης 610 m
Συννεφιά 2134 m
2019/12/10 12:50 LGZA 101250Z 34004KT 9999 -RA FEW010 SCT020 OVC070 12/11 Q1005
LGKR - Corfu Island-Elev 2m
Απόσταση από σταθμό: ΔΝΔ 282km
Ενημερώθηκε: 10/12/2019 15:20
Σχεδόν νεφελώδης
Σχεδόν νεφελώδης
 Ανεμοι από Α
Ανεμος: Α 13 km/h
Θερμοκρασία: 14°C
Σημείο Δρόσου: 12°C
Υγρασία: 88%
Βαρόμετρο: 1007 hPa
Νέφωση: Σχεδόν νεφελώδης
Ορατότητα: 10 km
Λεπτομέρειες Νεφών: Διάσπαρτα Νέφη 610 m
Μερικώς νεφελώδης 1067 m
Σχεδόν νεφελώδης 2438 m
2019/12/10 13:20 LGKR 101320Z 09007KT 9999 FEW020 SCT035 BKN080 14/12 Q1007 NOSIG
 
LGSO - Syros Island-Elev 72m
Απόσταση από σταθμό: ΝΝΑ 397km
Ενημερώθηκε: 10/12/2019 15:20

 Ανεμοι από ΑΝΑ
Ανεμος: ΑΝΑ 31 km/h
Θερμοκρασία: 16°C
Σημείο Δρόσου: 12°C
Υγρασία: 77%
Βαρόμετρο: 1007 hPa
2019/12/10 13:20 LGSO 101320Z AUTO 11017KT //// // ////// 16/12 Q1007 RERA
LGMK - Mikonos Island-Elev 123m
Απόσταση από σταθμό: ΝΝΑ 412km
Ενημερώθηκε: 10/12/2019 15:20
Σχεδόν νεφελώδης
Σχεδόν νεφελώδης
 Ανεμοι από ΑΝΑ
Ανεμος: ΑΝΑ 20 km/h, Ριπή: 39 km/h
Θερμοκρασία: 17°C
Σημείο Δρόσου: 12°C
Υγρασία: 73%
Βαρόμετρο: 1007 hPa
Νέφωση: Σχεδόν νεφελώδης
Ορατότητα: 10 km
Λεπτομέρειες Νεφών: Μερικώς νεφελώδης 549 m
Σχεδόν νεφελώδης 1067 m
2019/12/10 13:20 LGMK 101320Z 11011G21KT 9999 SCT018 BKN035 17/12 Q1007
 
LGSR - Santorini Island-Elev 40m
Απόσταση από σταθμό: ΝΝΑ 520km
Ενημερώθηκε: 10/12/2019 15:20
Μερικώς νεφελώδης
Μερικώς νεφελώδης
 Ανεμοι από ΝΝΑ
Ανεμος: ΝΝΑ 28 km/h
Θερμοκρασία: 17°C
Σημείο Δρόσου: 12°C
Υγρασία: 73%
Βαρόμετρο: 1008 hPa
Νέφωση: Μερικώς νεφελώδης
Ορατότητα: 10 km
Λεπτομέρειες Νεφών: Μερικώς νεφελώδης 610 m
2019/12/10 13:20 LGSR 101320Z 15015KT 9999 SCT020 17/12 Q1008
LGKL - Kalamata-Elev 8m
Απόσταση από σταθμό: Ν 405km
Ενημερώθηκε: 10/12/2019 15:20
Ασθενής βροχή, Σχεδόν νεφελώδης
Ασθενής βροχή, Σχεδόν νεφελώδης
 Ανεμοι από άπνοια
Ανεμος: άπνοια
Θερμοκρασία: 13°C
Σημείο Δρόσου: 12°C
Υγρασία: 94%
Βαρόμετρο: 1005 hPa
Περίληψη: Ασθενής βροχή
Νέφωση: Σχεδόν νεφελώδης
Ορατότητα: 2 km
Λεπτομέρειες Νεφών: Μερικώς νεφελώδης 610 m
Μερικώς νεφελώδης 914 m
Σχεδόν νεφελώδης 2134 m
2019/12/10 13:20 LGKL 101320Z 00000KT 2000 -RA SCT020TCU SCT030 BKN070 13/12 Q1005
 
LGIR - Iraklion/Crete-Elev 5m
Απόσταση από σταθμό: ΝΝΑ 622km
Ενημερώθηκε: 10/12/2019 15:20
Ασθενής βροχή, Σχεδόν νεφελώδης
Ασθενής βροχή, Σχεδόν νεφελώδης
 Ανεμοι από Ν
Ανεμος: Ν 20 km/h
Θερμοκρασία: 16°C
Σημείο Δρόσου: 13°C
Υγρασία: 83%
Βαρόμετρο: 1007 hPa
Περίληψη: Ασθενής βροχή
Νέφωση: Σχεδόν νεφελώδης
Ορατότητα: 10 km
Λεπτομέρειες Νεφών: Διάσπαρτα Νέφη 610 m
Μερικώς νεφελώδης 762 m
Σχεδόν νεφελώδης 2438 m
2019/12/10 13:20 LGIR 101320Z 18011KT 9999 -RA FEW020TCU SCT025 BKN080 16/13 Q1007 NOSIG
LGRP - Rhodes-Elev 5m
Απόσταση από σταθμό: ΝΑ 649km
Ενημερώθηκε: 10/12/2019 15:20
Διάσπαρτα Νέφη
Διάσπαρτα Νέφη
 Ανεμοι από Α
Ανεμος: Α 9 km/h
Θερμοκρασία: 18°C
Σημείο Δρόσου: 9°C
Υγρασία: 56%
Βαρόμετρο: 1010 hPa
Νέφωση: Διάσπαρτα Νέφη
Ορατότητα: 10 km
Λεπτομέρειες Νεφών: Διάσπαρτα Νέφη 610 m
2019/12/10 13:20 LGRP 101320Z 10005KT 060V150 9999 FEW020 18/09 Q1010 NOSIG
 
LWOH - Ohrid/FYROM-Elev 761m
Απόσταση από σταθμό: ΔΒΔ 188km
Ενημερώθηκε: 10/12/2019 15:30
Συννεφιά
Συννεφιά
 Ανεμοι από ΒΒΔ
Ανεμος: ΒΒΔ 11 km/h
Θερμοκρασία: 7°C
Δείκτης Ψύχρας: 5°C
Σημείο Δρόσου: 5°C
Υγρασία: 87%
Βαρόμετρο: 1009 hPa
Νέφωση: Συννεφιά
Ορατότητα: 10 km
Λεπτομέρειες Νεφών: Σχεδόν νεφελώδης 305 m
Συννεφιά 1219 m
2019/12/10 13:30 LWOH 101330Z 34006KT 9999 BKN010 OVC040 07/05 Q1009
LBSF - Sofia/Bulgaria-Elev 595m
Απόσταση από σταθμό: Β 227km
Ενημερώθηκε: 10/12/2019 15:30
Αχλύς, Μερικώς νεφελώδης
Αχλύς, Μερικώς νεφελώδης
 Ανεμοι από ΝΑ
Ανεμος: ΝΑ 6 km/h
Θερμοκρασία: 0°C
Σημείο Δρόσου: 0°C
Υγρασία: 100%
Βαρόμετρο: 1012 hPa
Περίληψη: Αχλύς
Νέφωση: Μερικώς νεφελώδης
Ορατότητα: 2 km
Λεπτομέρειες Νεφών: Μερικώς νεφελώδης 61 m
Μερικώς νεφελώδης 1768 m
2019/12/10 13:30 LBSF 101330Z 13003KT 080V200 1500 R27/1400D BR SCT002 SCT058 00/00 Q1012 TEMPO 0800 FG